Luz De Mar — ECIJ — position and weather

sailwx.info

Track history (hours):
 
Tides and Currents Weather Stations Pressure Air Temp Water Temp Dewpoint Dewpoint Depression Visibility Wind Speed Wind Dir Waves Ship Positions

Luz De Mar

Last reported at 2018-Apr-24 01:00 UTC. Time now 2018-Apr-24 01:12 UTC.
Position N 36°08' W 005°26'.

Length 56 m; draft 6.7 m.

Type: SAR. MMSI: 224311000.

Date/timePositionNaut miles runAvg speedWind from/ knotsBaromVisibWave heightAir tempDewpointWater temp
2018-Apr-24 01:00N 36°08' W 005°26'0 0.0
2018-Apr-24 00:21N 36°08' W 005°26'0 0.0
2018-Apr-24 00:00N 36°08' W 005°26'0 0.0
2018-Apr-23 23:27N 36°08' W 005°26'0 0.0
2018-Apr-23 23:00N 36°08' W 005°26'0 0.0
2018-Apr-23 22:24N 36°08' W 005°26'0 0.0
2018-Apr-23 21:42N 36°08' W 005°26'0 0.0
2018-Apr-23 21:24N 36°08' W 005°26'0 0.0
2018-Apr-23 20:51N 36°08' W 005°26'0 0.0
2018-Apr-23 20:21N 36°08' W 005°26'0 0.0
2018-Apr-23 19:57N 36°08' W 005°26'0 0.0
2018-Apr-23 12:03N 36°08' W 005°26'0 0.0
2018-Apr-23 11:57N 36°08' W 005°26'0 0.0
2018-Apr-23 11:21N 36°08' W 005°26'0 0.0
2018-Apr-23 10:09N 36°08' W 005°26'0 0.0
2018-Apr-23 10:00N 36°08' W 005°26'0 0.0
2018-Apr-23 09:21N 36°08' W 005°26'0 0.0
2018-Apr-23 05:57N 36°08' W 005°26'0 0.0
2018-Apr-23 05:27N 36°08' W 005°26'0 0.0
2018-Apr-23 04:45N 36°08' W 005°26'0 0.0
2018-Apr-23 04:09N 36°08' W 005°26'0 0.0
2018-Apr-23 03:57N 36°08' W 005°26'0 0.0
2018-Apr-22 18:33N 36°08' W 005°26'0 0.0
2018-Apr-22 18:15N 36°08' W 005°26'0 0.0
2018-Apr-22 17:51N 36°08' W 005°26'0 0.0
2018-Apr-22 17:09N 36°08' W 005°26'0 0.0
2018-Apr-22 14:39N 36°08' W 005°26'0 0.0
2018-Apr-22 13:33N 36°08' W 005°26'0 0.0
2018-Apr-22 13:15N 36°08' W 005°26'0 0.0
2018-Apr-22 13:00N 36°08' W 005°26'0 0.0
2018-Apr-22 12:27N 36°08' W 005°26'0 0.0
2018-Apr-22 11:45N 36°08' W 005°26'0 0.0
2018-Apr-22 11:27N 36°08' W 005°26'0 0.6
2018-Apr-22 10:58N 36°08' W 005°26'3 6.5
2018-Apr-22 10:29N 36°10' W 005°23'2 2.7
2018-Apr-22 09:41N 36°08' W 005°25'1 4.2
2018-Apr-22 09:30N 36°08' W 005°25'4 7.7
2018-Apr-22 09:00N 36°04' W 005°23'4 8.9
2018-Apr-22 08:30N 36°00' W 005°21'3 6.9
2018-Apr-22 08:00N 35°57' W 005°20'3 5.8
2018-Apr-22 07:30N 35°54' W 005°19'1 1.2
2018-Apr-22 07:00N 35°54' W 005°19'0 0.0
2018-Apr-22 06:30N 35°54' W 005°19'0 0.0
2018-Apr-22 06:00N 35°54' W 005°19'0 0.0
2018-Apr-22 05:30N 35°54' W 005°19'0 0.0
2018-Apr-22 05:00N 35°54' W 005°19'0 0.0
2018-Apr-22 04:30N 35°54' W 005°19'0 0.0
2018-Apr-22 04:00N 35°54' W 005°19'0 0.0
2018-Apr-22 03:30N 35°54' W 005°19'0 0.0
2018-Apr-22 03:00N 35°54' W 005°19'0 0.0
2018-Apr-22 02:30N 35°54' W 005°19'0 0.0
2018-Apr-22 02:00N 35°54' W 005°19'0 0.0
2018-Apr-22 01:30N 35°54' W 005°19'0 0.0
2018-Apr-22 01:00N 35°54' W 005°19'0 0.0
2018-Apr-22 00:30N 35°54' W 005°19'0 0.0
2018-Apr-22 00:00N 35°54' W 005°19'0 0.0
2018-Apr-21 23:30N 35°54' W 005°19'0 0.0
2018-Apr-21 23:00N 35°54' W 005°19'0 0.0
2018-Apr-21 22:30N 35°54' W 005°19'0 0.0
2018-Apr-21 22:00N 35°54' W 005°19'0 0.0
2018-Apr-21 21:30N 35°54' W 005°19'0 0.0
2018-Apr-21 21:00N 35°54' W 005°19'0 0.0
2018-Apr-21 20:30N 35°54' W 005°19'0 0.0
2018-Apr-21 19:57N 35°54' W 005°19'0 0.0
2018-Apr-21 19:30N 35°54' W 005°19'0 0.0
2018-Apr-21 19:00N 35°54' W 005°19'0 0.0
2018-Apr-21 18:30N 35°54' W 005°19'0 0.0
2018-Apr-21 18:00N 35°54' W 005°19'0 0.0
2018-Apr-21 17:30N 35°54' W 005°19'0 0.0
2018-Apr-21 17:00N 35°54' W 005°19'0 0.0
2018-Apr-21 16:30N 35°54' W 005°19'0 0.0
2018-Apr-21 16:00N 35°54' W 005°19'0 0.0
2018-Apr-21 15:30N 35°54' W 005°19'0 0.0
2018-Apr-21 15:00N 35°54' W 005°19'0 0.0
2018-Apr-21 14:30N 35°54' W 005°19'0 0.0
2018-Apr-21 14:00N 35°54' W 005°19'0 0.0
2018-Apr-21 13:30N 35°54' W 005°19'0 0.0
2018-Apr-21 13:00N 35°54' W 005°19'0 0.0
2018-Apr-21 12:30N 35°54' W 005°19'0 0.0
2018-Apr-21 12:00N 35°54' W 005°19'0 0.0
2018-Apr-21 11:30N 35°54' W 005°19'0 0.0
2018-Apr-21 11:00N 35°54' W 005°19'0 0.0
2018-Apr-21 10:30N 35°54' W 005°19'0 0.0
2018-Apr-21 10:00N 35°54' W 005°19'0 0.0
2018-Apr-21 09:30N 35°54' W 005°19'0 0.0
2018-Apr-21 09:00N 35°54' W 005°19'0 0.0
2018-Apr-21 08:30N 35°54' W 005°19'0 0.0
2018-Apr-21 08:00N 35°54' W 005°19'0 0.0
2018-Apr-21 07:30N 35°54' W 005°19'0 0.0
2018-Apr-21 07:00N 35°54' W 005°19'0 0.0
2018-Apr-21 06:30N 35°54' W 005°19'0 0.0
2018-Apr-21 06:00N 35°54' W 005°19'0 0.0
2018-Apr-21 05:30N 35°54' W 005°19'0 0.0
2018-Apr-21 05:00N 35°54' W 005°19'0 0.0
2018-Apr-21 04:30N 35°54' W 005°19'0 0.0
2018-Apr-21 04:00N 35°54' W 005°19'0 0.0
2018-Apr-21 03:30N 35°54' W 005°19'0 0.0
2018-Apr-21 03:00N 35°54' W 005°19'0 0.0
2018-Apr-21 02:30N 35°54' W 005°19'0 0.0
2018-Apr-21 02:00N 35°54' W 005°19'0 0.0
2018-Apr-21 01:30N 35°54' W 005°19'0 0.0
2018-Apr-21 01:00N 35°54' W 005°19'0 0.0
2018-Apr-21 00:30N 35°54' W 005°19'0 0.0
2018-Apr-21 00:00N 35°54' W 005°19'0 0.0
2018-Apr-20 23:30N 35°54' W 005°19'0 0.0
2018-Apr-20 23:00N 35°54' W 005°19'0 0.0
2018-Apr-20 22:30N 35°54' W 005°19'0 0.0
2018-Apr-20 22:00N 35°54' W 005°19'0 0.0
2018-Apr-20 21:30N 35°54' W 005°19'0 0.0
2018-Apr-20 21:00N 35°54' W 005°19'0 0.0
2018-Apr-20 20:30N 35°54' W 005°19'0 0.0
2018-Apr-20 20:00N 35°54' W 005°19'0 0.0
2018-Apr-20 19:30N 35°54' W 005°19'0 0.0
2018-Apr-20 19:00N 35°54' W 005°19'0 0.0
2018-Apr-20 18:30N 35°54' W 005°19'0 0.0
2018-Apr-20 18:00N 35°54' W 005°19'0 0.0
2018-Apr-20 17:30N 35°54' W 005°19'0 0.0
2018-Apr-20 17:00N 35°54' W 005°19'0 0.0
2018-Apr-20 16:30N 35°54' W 005°19'0 0.0
2018-Apr-20 16:00N 35°54' W 005°19'0 0.0
2018-Apr-20 15:30N 35°54' W 005°19'0 0.0
2018-Apr-20 15:00N 35°54' W 005°19'0 0.0
2018-Apr-20 14:30N 35°54' W 005°19'0 0.0
2018-Apr-20 14:00N 35°54' W 005°19'0 0.0
2018-Apr-20 13:30N 35°54' W 005°19'0 0.0
2018-Apr-20 13:00N 35°54' W 005°19'0 0.0
2018-Apr-20 12:30N 35°54' W 005°19'0 0.0
2018-Apr-20 12:00N 35°54' W 005°19'0 0.0
2018-Apr-20 11:27N 35°54' W 005°19'0 0.0
2018-Apr-20 11:00N 35°54' W 005°19'0 0.0
2018-Apr-20 10:30N 35°54' W 005°19'0 0.0
2018-Apr-20 10:00N 35°54' W 005°19'0 0.0
2018-Apr-20 09:30N 35°54' W 005°19'0 0.0
2018-Apr-20 09:00N 35°54' W 005°19'0 0.0
2018-Apr-20 08:30N 35°54' W 005°19'0 0.0
2018-Apr-20 08:00N 35°54' W 005°19'0 0.0
2018-Apr-20 07:30N 35°54' W 005°19'0 0.0
2018-Apr-20 07:00N 35°54' W 005°19'0 0.0
2018-Apr-20 06:30N 35°54' W 005°19'0 0.0
2018-Apr-20 06:00N 35°54' W 005°19'0 0.0
2018-Apr-20 05:30N 35°54' W 005°19'0 0.0
2018-Apr-20 05:00N 35°54' W 005°19'0 0.0
2018-Apr-20 04:30N 35°54' W 005°19'0 0.0
2018-Apr-20 04:00N 35°54' W 005°19'0 0.0
2018-Apr-20 03:30N 35°54' W 005°19'0 0.0
2018-Apr-20 03:00N 35°54' W 005°19'0 0.0
2018-Apr-20 02:30N 35°54' W 005°19'0 0.0
2018-Apr-20 02:00N 35°54' W 005°19'0 0.0
2018-Apr-20 01:30N 35°54' W 005°19'0 0.0
2018-Apr-20 01:00N 35°54' W 005°19'0 0.0
2018-Apr-20 00:30N 35°54' W 005°19'0 0.0
2018-Apr-20 00:00N 35°54' W 005°19'0 0.0
2018-Apr-19 23:30N 35°54' W 005°19'0 0.0
2018-Apr-19 23:00N 35°54' W 005°19'0 0.0
2018-Apr-19 22:30N 35°54' W 005°19'0 0.0
2018-Apr-19 22:00N 35°54' W 005°19'0 0.0
2018-Apr-19 21:30N 35°54' W 005°19'0 0.0
2018-Apr-19 21:00N 35°54' W 005°19'0 0.0
2018-Apr-19 20:30N 35°54' W 005°19'0 0.0
2018-Apr-19 20:00N 35°54' W 005°19'0 0.0
2018-Apr-19 19:30N 35°54' W 005°19'0 0.0
2018-Apr-19 19:00N 35°54' W 005°19'0 0.0
2018-Apr-19 18:30N 35°54' W 005°19'0 0.0
2018-Apr-19 18:00N 35°54' W 005°19'0 0.0
2018-Apr-19 17:30N 35°54' W 005°19'0 0.0
2018-Apr-19 17:00N 35°54' W 005°19'0 0.0
2018-Apr-19 16:30N 35°54' W 005°19'0 0.0
2018-Apr-19 16:00N 35°54' W 005°19'0 0.0
2018-Apr-19 15:30N 35°54' W 005°19'0 0.0
2018-Apr-19 15:00N 35°54' W 005°19'0 0.0
2018-Apr-19 14:30N 35°54' W 005°19'0 0.0
2018-Apr-19 14:00N 35°54' W 005°19'0 0.0
2018-Apr-19 13:30N 35°54' W 005°19'0 0.0
2018-Apr-19 13:00N 35°54' W 005°19'0 0.0
2018-Apr-19 12:30N 35°54' W 005°19'0 0.0
2018-Apr-19 12:00N 35°54' W 005°19'0 0.0
2018-Apr-19 11:30N 35°54' W 005°19'0 0.0
2018-Apr-19 11:00N 35°54' W 005°19'0 0.0
2018-Apr-19 10:30N 35°54' W 005°19'0 0.0
2018-Apr-19 10:00N 35°54' W 005°19'0 0.0
2018-Apr-19 09:27N 35°54' W 005°19'0 0.0
2018-Apr-19 09:00N 35°54' W 005°19'0 0.0
2018-Apr-19 08:30N 35°54' W 005°19'0 0.0
2018-Apr-19 08:00N 35°54' W 005°19'0 0.0
2018-Apr-19 07:30N 35°54' W 005°19'0 0.0
2018-Apr-19 07:00N 35°54' W 005°19'0 0.0
2018-Apr-19 06:30N 35°54' W 005°19'0 0.0
2018-Apr-19 05:57N 35°54' W 005°19'0 0.0
2018-Apr-19 05:30N 35°54' W 005°19'0 0.0
2018-Apr-19 05:00N 35°54' W 005°19'0 0.0
2018-Apr-19 04:30N 35°54' W 005°19'0 0.0
2018-Apr-19 04:00N 35°54' W 005°19'0 0.0
2018-Apr-19 03:30N 35°54' W 005°19'0 0.0
2018-Apr-19 03:00N 35°54' W 005°19'0 0.0
2018-Apr-19 02:30N 35°54' W 005°19'0 0.0
2018-Apr-19 02:00N 35°54' W 005°19'0 0.0
2018-Apr-19 01:30N 35°54' W 005°19'0 0.0
2018-Apr-19 01:00N 35°54' W 005°19'0 0.0
2018-Apr-19 00:30N 35°54' W 005°19'0 0.0
2018-Apr-19 00:00N 35°54' W 005°19'0 0.0
2018-Apr-18 23:30N 35°54' W 005°19'0 0.0
2018-Apr-18 23:00N 35°54' W 005°19'0 0.0
2018-Apr-18 22:30N 35°54' W 005°19'0 0.0
2018-Apr-18 22:00N 35°54' W 005°19'0 0.0
2018-Apr-18 21:30N 35°54' W 005°19'0 0.0
2018-Apr-18 21:00N 35°54' W 005°19'0 0.0
2018-Apr-18 20:30N 35°54' W 005°19'0 0.0
2018-Apr-18 20:00N 35°54' W 005°19'0 0.0
2018-Apr-18 19:30N 35°54' W 005°19'0 0.0
2018-Apr-18 19:00N 35°54' W 005°19'0 0.0
2018-Apr-18 18:30N 35°54' W 005°19'0 0.0
2018-Apr-18 18:00N 35°54' W 005°19'0 0.0
2018-Apr-18 17:30N 35°54' W 005°19'0 0.0
2018-Apr-18 17:00N 35°54' W 005°19'0 0.0
2018-Apr-18 16:30N 35°54' W 005°19'0 0.0
2018-Apr-18 15:57N 35°54' W 005°19'0 0.0
2018-Apr-18 15:27N 35°54' W 005°19'0 0.0
2018-Apr-18 15:00N 35°54' W 005°19'0 0.0
2018-Apr-18 14:30N 35°54' W 005°19'0 0.0
2018-Apr-18 14:00N 35°54' W 005°19'0 0.0
2018-Apr-18 13:30N 35°54' W 005°19'0 0.0
2018-Apr-18 13:00N 35°54' W 005°19'0 0.0
2018-Apr-18 12:30N 35°54' W 005°19'0 0.0
2018-Apr-18 12:00N 35°54' W 005°19'0 0.0
2018-Apr-18 11:30N 35°54' W 005°19'0 0.0
2018-Apr-18 11:00N 35°54' W 005°19'0 0.0
2018-Apr-18 10:30N 35°54' W 005°19'0 0.0
2018-Apr-18 10:00N 35°54' W 005°19'0 0.0
2018-Apr-18 09:30N 35°54' W 005°19'0 0.0
2018-Apr-18 09:00N 35°54' W 005°19'0 0.0
2018-Apr-18 08:30N 35°54' W 005°19'0 0.0
2018-Apr-18 08:00N 35°54' W 005°19'0 0.0
2018-Apr-18 07:30N 35°54' W 005°19'0 0.0
2018-Apr-18 07:00N 35°54' W 005°19'0 0.0
2018-Apr-18 06:30N 35°54' W 005°19'0 0.0
2018-Apr-18 06:00N 35°54' W 005°19'0 0.0
2018-Apr-18 05:30N 35°54' W 005°19'0 0.0
2018-Apr-18 05:00N 35°54' W 005°19'0 0.0
2018-Apr-18 04:30N 35°54' W 005°19'0 0.0
2018-Apr-18 04:00N 35°54' W 005°19'0 0.0
2018-Apr-18 03:30N 35°54' W 005°19'0 0.0
2018-Apr-18 03:00N 35°54' W 005°19'0 0.0
2018-Apr-18 02:30N 35°54' W 005°19'0 0.0
2018-Apr-18 02:00N 35°54' W 005°19'0 0.0
2018-Apr-18 01:30N 35°54' W 005°19'0 0.0
2018-Apr-18 01:00N 35°54' W 005°19'0 0.0
2018-Apr-18 00:30N 35°54' W 005°19'0 0.0
2018-Apr-17 23:57N 35°54' W 005°19'0 0.0
2018-Apr-17 23:30N 35°54' W 005°19'0 0.0
2018-Apr-17 23:00N 35°54' W 005°19'0 0.0
2018-Apr-17 22:30N 35°54' W 005°19'0 0.0
2018-Apr-17 22:00N 35°54' W 005°19'0 0.0
2018-Apr-17 21:30N 35°54' W 005°19'0 0.0
2018-Apr-17 20:57N 35°54' W 005°19'0 0.0
2018-Apr-17 20:30N 35°54' W 005°19'0 0.0
2018-Apr-17 20:00N 35°54' W 005°19'0 0.0
2018-Apr-17 19:30N 35°54' W 005°19'0 0.0
2018-Apr-17 19:00N 35°54' W 005°19'0 0.0
2018-Apr-17 18:30N 35°54' W 005°19'0 0.0
2018-Apr-17 18:00N 35°54' W 005°19'0 0.0
2018-Apr-17 17:30N 35°54' W 005°19'0 0.0
2018-Apr-17 17:00N 35°54' W 005°19'0 0.0
2018-Apr-17 16:30N 35°54' W 005°19'0 0.0
2018-Apr-17 16:00N 35°54' W 005°19'0 0.0
2018-Apr-17 15:30N 35°54' W 005°19'15 0.4
2018-Apr-15 20:49N 36°08' W 005°26'0 0.0
2018-Apr-15 20:24N 36°08' W 005°26'0 0.0
2018-Apr-15 04:30N 36°08' W 005°26'0 0.0
2018-Apr-14 18:59N 36°08' W 005°26'  
Track history (hours):
 
Tides and Currents Weather Stations Pressure Air Temp Water Temp Dewpoint Dewpoint Depression Visibility Wind Speed Wind Dir Waves Ship Positions

Luz De Mar

Last reported at 2018-Apr-24 01:00 UTC. Time now 2018-Apr-24 01:12 UTC.
Position N 36°08' W 005°26'.

Length 56 m; draft 6.7 m.

Type: SAR. MMSI: 224311000.

Date/timePositionNaut miles runAvg speedWind from/ knotsBaromVisibWave heightAir tempDewpointWater temp
2018-Apr-24 01:00N 36°08' W 005°26'0 0.0
2018-Apr-24 00:21N 36°08' W 005°26'0 0.0
2018-Apr-24 00:00N 36°08' W 005°26'0 0.0
2018-Apr-23 23:27N 36°08' W 005°26'0 0.0
2018-Apr-23 23:00N 36°08' W 005°26'0 0.0
2018-Apr-23 22:24N 36°08' W 005°26'0 0.0
2018-Apr-23 21:42N 36°08' W 005°26'0 0.0
2018-Apr-23 21:24N 36°08' W 005°26'0 0.0
2018-Apr-23 20:51N 36°08' W 005°26'0 0.0
2018-Apr-23 20:21N 36°08' W 005°26'0 0.0
2018-Apr-23 19:57N 36°08' W 005°26'0 0.0
2018-Apr-23 12:03N 36°08' W 005°26'0 0.0
2018-Apr-23 11:57N 36°08' W 005°26'0 0.0
2018-Apr-23 11:21N 36°08' W 005°26'0 0.0
2018-Apr-23 10:09N 36°08' W 005°26'0 0.0
2018-Apr-23 10:00N 36°08' W 005°26'0 0.0
2018-Apr-23 09:21N 36°08' W 005°26'0 0.0
2018-Apr-23 05:57N 36°08' W 005°26'0 0.0
2018-Apr-23 05:27N 36°08' W 005°26'0 0.0
2018-Apr-23 04:45N 36°08' W 005°26'0 0.0
2018-Apr-23 04:09N 36°08' W 005°26'0 0.0
2018-Apr-23 03:57N 36°08' W 005°26'0 0.0
2018-Apr-22 18:33N 36°08' W 005°26'0 0.0
2018-Apr-22 18:15N 36°08' W 005°26'0 0.0
2018-Apr-22 17:51N 36°08' W 005°26'0 0.0
2018-Apr-22 17:09N 36°08' W 005°26'0 0.0
2018-Apr-22 14:39N 36°08' W 005°26'0 0.0
2018-Apr-22 13:33N 36°08' W 005°26'0 0.0
2018-Apr-22 13:15N 36°08' W 005°26'0 0.0
2018-Apr-22 13:00N 36°08' W 005°26'0 0.0
2018-Apr-22 12:27N 36°08' W 005°26'0 0.0
2018-Apr-22 11:45N 36°08' W 005°26'0 0.0
2018-Apr-22 11:27N 36°08' W 005°26'0 0.6
2018-Apr-22 10:58N 36°08' W 005°26'3 6.5
2018-Apr-22 10:29N 36°10' W 005°23'2 2.7
2018-Apr-22 09:41N 36°08' W 005°25'1 4.2
2018-Apr-22 09:30N 36°08' W 005°25'4 7.7
2018-Apr-22 09:00N 36°04' W 005°23'4 8.9
2018-Apr-22 08:30N 36°00' W 005°21'3 6.9
2018-Apr-22 08:00N 35°57' W 005°20'3 5.8
2018-Apr-22 07:30N 35°54' W 005°19'1 1.2
2018-Apr-22 07:00N 35°54' W 005°19'0 0.0
2018-Apr-22 06:30N 35°54' W 005°19'0 0.0
2018-Apr-22 06:00N 35°54' W 005°19'0 0.0
2018-Apr-22 05:30N 35°54' W 005°19'0 0.0
2018-Apr-22 05:00N 35°54' W 005°19'0 0.0
2018-Apr-22 04:30N 35°54' W 005°19'0 0.0
2018-Apr-22 04:00N 35°54' W 005°19'0 0.0
2018-Apr-22 03:30N 35°54' W 005°19'0 0.0
2018-Apr-22 03:00N 35°54' W 005°19'0 0.0
2018-Apr-22 02:30N 35°54' W 005°19'0 0.0
2018-Apr-22 02:00N 35°54' W 005°19'0 0.0
2018-Apr-22 01:30N 35°54' W 005°19'0 0.0
2018-Apr-22 01:00N 35°54' W 005°19'0 0.0
2018-Apr-22 00:30N 35°54' W 005°19'0 0.0
2018-Apr-22 00:00N 35°54' W 005°19'0 0.0
2018-Apr-21 23:30N 35°54' W 005°19'0 0.0
2018-Apr-21 23:00N 35°54' W 005°19'0 0.0
2018-Apr-21 22:30N 35°54' W 005°19'0 0.0
2018-Apr-21 22:00N 35°54' W 005°19'0 0.0
2018-Apr-21 21:30N 35°54' W 005°19'0 0.0
2018-Apr-21 21:00N 35°54' W 005°19'0 0.0
2018-Apr-21 20:30N 35°54' W 005°19'0 0.0
2018-Apr-21 19:57N 35°54' W 005°19'0 0.0
2018-Apr-21 19:30N 35°54' W 005°19'0 0.0
2018-Apr-21 19:00N 35°54' W 005°19'0 0.0
2018-Apr-21 18:30N 35°54' W 005°19'0 0.0
2018-Apr-21 18:00N 35°54' W 005°19'0 0.0
2018-Apr-21 17:30N 35°54' W 005°19'0 0.0
2018-Apr-21 17:00N 35°54' W 005°19'0 0.0
2018-Apr-21 16:30N 35°54' W 005°19'0 0.0
2018-Apr-21 16:00N 35°54' W 005°19'0 0.0
2018-Apr-21 15:30N 35°54' W 005°19'0 0.0
2018-Apr-21 15:00N 35°54' W 005°19'0 0.0
2018-Apr-21 14:30N 35°54' W 005°19'0 0.0
2018-Apr-21 14:00N 35°54' W 005°19'0 0.0
2018-Apr-21 13:30N 35°54' W 005°19'0 0.0
2018-Apr-21 13:00N 35°54' W 005°19'0 0.0
2018-Apr-21 12:30N 35°54' W 005°19'0 0.0
2018-Apr-21 12:00N 35°54' W 005°19'0 0.0
2018-Apr-21 11:30N 35°54' W 005°19'0 0.0
2018-Apr-21 11:00N 35°54' W 005°19'0 0.0
2018-Apr-21 10:30N 35°54' W 005°19'0 0.0
2018-Apr-21 10:00N 35°54' W 005°19'0 0.0
2018-Apr-21 09:30N 35°54' W 005°19'0 0.0
2018-Apr-21 09:00N 35°54' W 005°19'0 0.0
2018-Apr-21 08:30N 35°54' W 005°19'0 0.0
2018-Apr-21 08:00N 35°54' W 005°19'0 0.0
2018-Apr-21 07:30N 35°54' W 005°19'0 0.0
2018-Apr-21 07:00N 35°54' W 005°19'0 0.0
2018-Apr-21 06:30N 35°54' W 005°19'0 0.0
2018-Apr-21 06:00N 35°54' W 005°19'0 0.0
2018-Apr-21 05:30N 35°54' W 005°19'0 0.0
2018-Apr-21 05:00N 35°54' W 005°19'0 0.0
2018-Apr-21 04:30N 35°54' W 005°19'0 0.0
2018-Apr-21 04:00N 35°54' W 005°19'0 0.0
2018-Apr-21 03:30N 35°54' W 005°19'0 0.0
2018-Apr-21 03:00N 35°54' W 005°19'0 0.0
2018-Apr-21 02:30N 35°54' W 005°19'0 0.0
2018-Apr-21 02:00N 35°54' W 005°19'0 0.0
2018-Apr-21 01:30N 35°54' W 005°19'0 0.0
2018-Apr-21 01:00N 35°54' W 005°19'0 0.0
2018-Apr-21 00:30N 35°54' W 005°19'0 0.0
2018-Apr-21 00:00N 35°54' W 005°19'0 0.0
2018-Apr-20 23:30N 35°54' W 005°19'0 0.0
2018-Apr-20 23:00N 35°54' W 005°19'0 0.0
2018-Apr-20 22:30N 35°54' W 005°19'0 0.0
2018-Apr-20 22:00N 35°54' W 005°19'0 0.0
2018-Apr-20 21:30N 35°54' W 005°19'0 0.0
2018-Apr-20 21:00N 35°54' W 005°19'0 0.0
2018-Apr-20 20:30N 35°54' W 005°19'0 0.0
2018-Apr-20 20:00N 35°54' W 005°19'0 0.0
2018-Apr-20 19:30N 35°54' W 005°19'0 0.0
2018-Apr-20 19:00N 35°54' W 005°19'0 0.0
2018-Apr-20 18:30N 35°54' W 005°19'0 0.0
2018-Apr-20 18:00N 35°54' W 005°19'0 0.0
2018-Apr-20 17:30N 35°54' W 005°19'0 0.0
2018-Apr-20 17:00N 35°54' W 005°19'0 0.0
2018-Apr-20 16:30N 35°54' W 005°19'0 0.0
2018-Apr-20 16:00N 35°54' W 005°19'0 0.0
2018-Apr-20 15:30N 35°54' W 005°19'0 0.0
2018-Apr-20 15:00N 35°54' W 005°19'0 0.0
2018-Apr-20 14:30N 35°54' W 005°19'0 0.0
2018-Apr-20 14:00N 35°54' W 005°19'0 0.0
2018-Apr-20 13:30N 35°54' W 005°19'0 0.0
2018-Apr-20 13:00N 35°54' W 005°19'0 0.0
2018-Apr-20 12:30N 35°54' W 005°19'0 0.0
2018-Apr-20 12:00N 35°54' W 005°19'0 0.0
2018-Apr-20 11:27N 35°54' W 005°19'0 0.0
2018-Apr-20 11:00N 35°54' W 005°19'0 0.0
2018-Apr-20 10:30N 35°54' W 005°19'0 0.0
2018-Apr-20 10:00N 35°54' W 005°19'0 0.0
2018-Apr-20 09:30N 35°54' W 005°19'0 0.0
2018-Apr-20 09:00N 35°54' W 005°19'0 0.0
2018-Apr-20 08:30N 35°54' W 005°19'0 0.0
2018-Apr-20 08:00N 35°54' W 005°19'0 0.0
2018-Apr-20 07:30N 35°54' W 005°19'0 0.0
2018-Apr-20 07:00N 35°54' W 005°19'0 0.0
2018-Apr-20 06:30N 35°54' W 005°19'0 0.0
2018-Apr-20 06:00N 35°54' W 005°19'0 0.0
2018-Apr-20 05:30N 35°54' W 005°19'0 0.0
2018-Apr-20 05:00N 35°54' W 005°19'0 0.0
2018-Apr-20 04:30N 35°54' W 005°19'0 0.0
2018-Apr-20 04:00N 35°54' W 005°19'0 0.0
2018-Apr-20 03:30N 35°54' W 005°19'0 0.0
2018-Apr-20 03:00N 35°54' W 005°19'0 0.0
2018-Apr-20 02:30N 35°54' W 005°19'0 0.0
2018-Apr-20 02:00N 35°54' W 005°19'0 0.0
2018-Apr-20 01:30N 35°54' W 005°19'0 0.0
2018-Apr-20 01:00N 35°54' W 005°19'0 0.0
2018-Apr-20 00:30N 35°54' W 005°19'0 0.0
2018-Apr-20 00:00N 35°54' W 005°19'0 0.0
2018-Apr-19 23:30N 35°54' W 005°19'0 0.0
2018-Apr-19 23:00N 35°54' W 005°19'0 0.0
2018-Apr-19 22:30N 35°54' W 005°19'0 0.0
2018-Apr-19 22:00N 35°54' W 005°19'0 0.0
2018-Apr-19 21:30N 35°54' W 005°19'0 0.0
2018-Apr-19 21:00N 35°54' W 005°19'0 0.0
2018-Apr-19 20:30N 35°54' W 005°19'0 0.0
2018-Apr-19 20:00N 35°54' W 005°19'0 0.0
2018-Apr-19 19:30N 35°54' W 005°19'0 0.0
2018-Apr-19 19:00N 35°54' W 005°19'0 0.0
2018-Apr-19 18:30N 35°54' W 005°19'0 0.0
2018-Apr-19 18:00N 35°54' W 005°19'0 0.0
2018-Apr-19 17:30N 35°54' W 005°19'0 0.0
2018-Apr-19 17:00N 35°54' W 005°19'0 0.0
2018-Apr-19 16:30N 35°54' W 005°19'0 0.0
2018-Apr-19 16:00N 35°54' W 005°19'0 0.0
2018-Apr-19 15:30N 35°54' W 005°19'0 0.0
2018-Apr-19 15:00N 35°54' W 005°19'0 0.0
2018-Apr-19 14:30N 35°54' W 005°19'0 0.0
2018-Apr-19 14:00N 35°54' W 005°19'0 0.0
2018-Apr-19 13:30N 35°54' W 005°19'0 0.0
2018-Apr-19 13:00N 35°54' W 005°19'0 0.0
2018-Apr-19 12:30N 35°54' W 005°19'0 0.0
2018-Apr-19 12:00N 35°54' W 005°19'0 0.0
2018-Apr-19 11:30N 35°54' W 005°19'0 0.0
2018-Apr-19 11:00N 35°54' W 005°19'0 0.0
2018-Apr-19 10:30N 35°54' W 005°19'0 0.0
2018-Apr-19 10:00N 35°54' W 005°19'0 0.0
2018-Apr-19 09:27N 35°54' W 005°19'0 0.0
2018-Apr-19 09:00N 35°54' W 005°19'0 0.0
2018-Apr-19 08:30N 35°54' W 005°19'0 0.0
2018-Apr-19 08:00N 35°54' W 005°19'0 0.0
2018-Apr-19 07:30N 35°54' W 005°19'0 0.0
2018-Apr-19 07:00N 35°54' W 005°19'0 0.0
2018-Apr-19 06:30N 35°54' W 005°19'0 0.0
2018-Apr-19 05:57N 35°54' W 005°19'0 0.0
2018-Apr-19 05:30N 35°54' W 005°19'0 0.0
2018-Apr-19 05:00N 35°54' W 005°19'0 0.0
2018-Apr-19 04:30N 35°54' W 005°19'0 0.0
2018-Apr-19 04:00N 35°54' W 005°19'0 0.0
2018-Apr-19 03:30N 35°54' W 005°19'0 0.0
2018-Apr-19 03:00N 35°54' W 005°19'0 0.0
2018-Apr-19 02:30N 35°54' W 005°19'0 0.0
2018-Apr-19 02:00N 35°54' W 005°19'0 0.0
2018-Apr-19 01:30N 35°54' W 005°19'0 0.0
2018-Apr-19 01:00N 35°54' W 005°19'0 0.0
2018-Apr-19 00:30N 35°54' W 005°19'0 0.0
2018-Apr-19 00:00N 35°54' W 005°19'0 0.0
2018-Apr-18 23:30N 35°54' W 005°19'0 0.0
2018-Apr-18 23:00N 35°54' W 005°19'0 0.0
2018-Apr-18 22:30N 35°54' W 005°19'0 0.0
2018-Apr-18 22:00N 35°54' W 005°19'0 0.0
2018-Apr-18 21:30N 35°54' W 005°19'0 0.0
2018-Apr-18 21:00N 35°54' W 005°19'0 0.0
2018-Apr-18 20:30N 35°54' W 005°19'0 0.0
2018-Apr-18 20:00N 35°54' W 005°19'0 0.0
2018-Apr-18 19:30N 35°54' W 005°19'0 0.0
2018-Apr-18 19:00N 35°54' W 005°19'0 0.0
2018-Apr-18 18:30N 35°54' W 005°19'0 0.0
2018-Apr-18 18:00N 35°54' W 005°19'0 0.0
2018-Apr-18 17:30N 35°54' W 005°19'0 0.0
2018-Apr-18 17:00N 35°54' W 005°19'0 0.0
2018-Apr-18 16:30N 35°54' W 005°19'0 0.0
2018-Apr-18 15:57N 35°54' W 005°19'0 0.0
2018-Apr-18 15:27N 35°54' W 005°19'0 0.0
2018-Apr-18 15:00N 35°54' W 005°19'0 0.0
2018-Apr-18 14:30N 35°54' W 005°19'0 0.0
2018-Apr-18 14:00N 35°54' W 005°19'0 0.0
2018-Apr-18 13:30N 35°54' W 005°19'0 0.0
2018-Apr-18 13:00N 35°54' W 005°19'0 0.0
2018-Apr-18 12:30N 35°54' W 005°19'0 0.0
2018-Apr-18 12:00N 35°54' W 005°19'0 0.0
2018-Apr-18 11:30N 35°54' W 005°19'0 0.0
2018-Apr-18 11:00N 35°54' W 005°19'0 0.0
2018-Apr-18 10:30N 35°54' W 005°19'0 0.0
2018-Apr-18 10:00N 35°54' W 005°19'0 0.0
2018-Apr-18 09:30N 35°54' W 005°19'0 0.0
2018-Apr-18 09:00N 35°54' W 005°19'0 0.0
2018-Apr-18 08:30N 35°54' W 005°19'0 0.0
2018-Apr-18 08:00N 35°54' W 005°19'0 0.0
2018-Apr-18 07:30N 35°54' W 005°19'0 0.0
2018-Apr-18 07:00N 35°54' W 005°19'0 0.0
2018-Apr-18 06:30N 35°54' W 005°19'0 0.0
2018-Apr-18 06:00N 35°54' W 005°19'0 0.0
2018-Apr-18 05:30N 35°54' W 005°19'0 0.0
2018-Apr-18 05:00N 35°54' W 005°19'0 0.0
2018-Apr-18 04:30N 35°54' W 005°19'0 0.0
2018-Apr-18 04:00N 35°54' W 005°19'0 0.0
2018-Apr-18 03:30N 35°54' W 005°19'0 0.0
2018-Apr-18 03:00N 35°54' W 005°19'0 0.0
2018-Apr-18 02:30N 35°54' W 005°19'0 0.0
2018-Apr-18 02:00N 35°54' W 005°19'0 0.0
2018-Apr-18 01:30N 35°54' W 005°19'0 0.0
2018-Apr-18 01:00N 35°54' W 005°19'0 0.0
2018-Apr-18 00:30N 35°54' W 005°19'0 0.0
2018-Apr-17 23:57N 35°54' W 005°19'0 0.0
2018-Apr-17 23:30N 35°54' W 005°19'0 0.0
2018-Apr-17 23:00N 35°54' W 005°19'0 0.0
2018-Apr-17 22:30N 35°54' W 005°19'0 0.0
2018-Apr-17 22:00N 35°54' W 005°19'0 0.0
2018-Apr-17 21:30N 35°54' W 005°19'0 0.0
2018-Apr-17 20:57N 35°54' W 005°19'0 0.0
2018-Apr-17 20:30N 35°54' W 005°19'0 0.0
2018-Apr-17 20:00N 35°54' W 005°19'0 0.0
2018-Apr-17 19:30N 35°54' W 005°19'0 0.0
2018-Apr-17 19:00N 35°54' W 005°19'0 0.0
2018-Apr-17 18:30N 35°54' W 005°19'0 0.0
2018-Apr-17 18:00N 35°54' W 005°19'0 0.0
2018-Apr-17 17:30N 35°54' W 005°19'0 0.0
2018-Apr-17 17:00N 35°54' W 005°19'0 0.0
2018-Apr-17 16:30N 35°54' W 005°19'0 0.0
2018-Apr-17 16:00N 35°54' W 005°19'0 0.0
2018-Apr-17 15:30N 35°54' W 005°19'15 0.4
2018-Apr-15 20:49N 36°08' W 005°26'0 0.0
2018-Apr-15 20:24N 36°08' W 005°26'0 0.0
2018-Apr-15 04:30N 36°08' W 005°26'0 0.0
2018-Apr-14 18:59N 36°08' W 005°26'  

Dump ship's entire track history